WSAP/QPG METAR and TAF weather

Enter ICAO airport designator
Station Type Date Time Source
WSAP METAR 2019/10/23 08:00 UTC NOAA

WSAP 230800Z 19005KT 9999 FEW018CB FEW020TCU SCT150 31/25 Q1006 RETS


Station Type Date Time Source
WSAP Decoded METAR 2019/10/23 08:00 UTC NOAA

Singapore / Paya Lebar, Singapore (WSAP) 01-22N 103-55E 32M
Oct 23, 2019 - 04:00 AM EDT / 2019.10.23 0800 UTC
Wind: from the S (190 degrees) at 6 MPH (5 KT):0
Visibility: greater than 7 mile(s):0
Sky conditions: partly cloudy
Weather: Cumulonimbus clouds, towering cumulus clouds observed
Temperature: 87 F (31 C)
Heat index: 97.5 F (36.4 C):1
Dew Point: 77 F (25 C)
Relative Humidity: 70%
Pressure (altimeter): 29.71 in. Hg (1006 hPa)
ob: WSAP 230800Z 19005KT 9999 FEW018CB FEW020TCU SCT150 31/25 Q1006 RETS
cycle: 8

Station Type Date Time Source
WSAP TAF 2019/10/23 08:04 UTC NOAA

TAF
AMD WSAP 230800Z 2308/2412 14007KT 9999 FEW015 SCT020

Example: see airport list